Rechercher aéroport 
image banner adimage banner adimage banner ad
image banner ad

1CA9 - Los Angeles County Fire Department

Situé à Thousand Oaks, United States

ICAO - 1CA9, IATA -

Données fournies par Airmate  

Information générale

Coordonnées: N34°5'1" W118°51'48"
Élévation : 1360 feet MSL.
Variation magnétique : 14° East
Voir autres Aéroports à California

Données opérationnelles

Special qualification required
Heure actuelle UTC:
Heure actuelle locale:
METAR: KNTD 292152Z 27011KT 10SM FEW008 FEW055 SCT250 22/15 A2991 RMK AO2 SLP130 T02220150 VISNO N $
TAF: TAF KNTD 2915/3015 VRB05KT 4800 BR OVC005 QNH2991INS BECMG 2916/2918 27011KT 9999 NSW FEW006 FEW050 SCT250 QNH2985INS TEMPO 3000/3006 30007KT FM300600 VRB05KT 9999 FEW005 QNH2986INS TEMPO 3009/3015 OVC005 T22/2922Z T16/3012Z FS30016
Voir NOTAMs / SUP AIP / TFR affectant cet aéroport [VIEW]
Fréquences de communication: [VIEW]

Pistes:

Coordonnées de l'aéroport

Adresse: Thousand Oaks United States

Vue satellite de 1CA9